sensor_id;sensor_type;location;lat;lon;timestamp;pressure;altitude;pressure_sealevel;temperature;humidity
75536;BME280;64119;52.070;20.804;2023-02-11T00:01:31;101772.60;;;1.81;85.89
75536;BME280;64119;52.070;20.804;2023-02-11T00:04:00;101775.07;;;1.84;85.75
75536;BME280;64119;52.070;20.804;2023-02-11T00:06:29;101778.36;;;1.84;86.00
75536;BME280;64119;52.070;20.804;2023-02-11T00:08:58;101772.98;;;1.83;85.99
75536;BME280;64119;52.070;20.804;2023-02-11T00:11:27;101771.02;;;1.84;85.87
75536;BME280;64119;52.070;20.804;2023-02-11T00:13:59;101762.88;;;1.86;85.81
75536;BME280;64119;52.070;20.804;2023-02-11T00:16:27;101763.02;;;1.86;85.80
75536;BME280;64119;52.070;20.804;2023-02-11T00:18:58;101766.14;;;1.87;85.98
75536;BME280;64119;52.070;20.804;2023-02-11T00:21:26;101764.61;;;1.89;85.69
75536;BME280;64119;52.070;20.804;2023-02-11T00:23:56;101750.19;;;1.91;85.53
75536;BME280;64119;52.070;20.804;2023-02-11T00:26:31;101747.73;;;1.91;85.64
75536;BME280;64119;52.070;20.804;2023-02-11T00:29:00;101749.34;;;1.90;85.35
75536;BME280;64119;52.070;20.804;2023-02-11T00:31:31;101748.38;;;1.91;85.39
75536;BME280;64119;52.070;20.804;2023-02-11T00:34:00;101748.21;;;1.91;85.33
75536;BME280;64119;52.070;20.804;2023-02-11T00:36:28;101740.34;;;1.94;85.05
75536;BME280;64119;52.070;20.804;2023-02-11T00:38:58;101731.36;;;1.96;85.42
75536;BME280;64119;52.070;20.804;2023-02-11T00:41:28;101721.57;;;1.96;85.03
75536;BME280;64119;52.070;20.804;2023-02-11T00:43:59;101718.84;;;1.98;84.91
75536;BME280;64119;52.070;20.804;2023-02-11T00:46:27;101711.45;;;1.99;84.98
75536;BME280;64119;52.070;20.804;2023-02-11T00:48:55;101712.83;;;1.99;84.76
75536;BME280;64119;52.070;20.804;2023-02-11T00:51:25;101709.14;;;1.99;84.73
75536;BME280;64119;52.070;20.804;2023-02-11T00:53:53;101694.69;;;1.99;84.93
75536;BME280;64119;52.070;20.804;2023-02-11T00:56:22;101684.34;;;2.02;84.89
75536;BME280;64119;52.070;20.804;2023-02-11T00:58:50;101672.41;;;2.00;84.73
75536;BME280;64119;52.070;20.804;2023-02-11T01:01:19;101664.42;;;2.00;84.87
75536;BME280;64119;52.070;20.804;2023-02-11T01:03:46;101656.60;;;2.02;85.08
75536;BME280;64119;52.070;20.804;2023-02-11T01:06:14;101649.21;;;2.03;84.64
75536;BME280;64119;52.070;20.804;2023-02-11T01:08:43;101644.09;;;2.01;84.79
75536;BME280;64119;52.070;20.804;2023-02-11T01:11:14;101633.95;;;1.99;84.68
75536;BME280;64119;52.070;20.804;2023-02-11T01:13:46;101629.84;;;2.01;84.38
75536;BME280;64119;52.070;20.804;2023-02-11T01:16:16;101618.12;;;2.01;84.47
75536;BME280;64119;52.070;20.804;2023-02-11T01:18:45;101620.64;;;2.00;84.21
75536;BME280;64119;52.070;20.804;2023-02-11T01:21:13;101607.61;;;1.99;84.29
75536;BME280;64119;52.070;20.804;2023-02-11T01:23:42;101609.17;;;2.02;83.71
75536;BME280;64119;52.070;20.804;2023-02-11T01:26:11;101605.23;;;2.04;83.41
75536;BME280;64119;52.070;20.804;2023-02-11T01:28:39;101600.14;;;2.04;83.62
75536;BME280;64119;52.070;20.804;2023-02-11T01:31:07;101589.40;;;2.03;83.38
75536;BME280;64119;52.070;20.804;2023-02-11T01:33:35;101582.44;;;2.05;83.49
75536;BME280;64119;52.070;20.804;2023-02-11T01:36:05;101574.78;;;2.05;83.43
75536;BME280;64119;52.070;20.804;2023-02-11T01:38:34;101562.55;;;2.10;82.80
75536;BME280;64119;52.070;20.804;2023-02-11T01:41:05;101558.34;;;2.10;82.92
75536;BME280;64119;52.070;20.804;2023-02-11T01:43:36;101551.17;;;2.08;82.98
75536;BME280;64119;52.070;20.804;2023-02-11T01:48:46;101547.30;;;2.14;82.44
75536;BME280;64119;52.070;20.804;2023-02-11T01:51:22;101551.94;;;2.15;82.65
75536;BME280;64119;52.070;20.804;2023-02-11T01:53:51;101560.15;;;2.17;82.28
75536;BME280;64119;52.070;20.804;2023-02-11T01:56:42;101565.12;;;2.18;82.47
75536;BME280;64119;52.070;20.804;2023-02-11T01:59:41;101562.11;;;2.16;82.60
75536;BME280;64119;52.070;20.804;2023-02-11T02:02:12;101566.10;;;2.19;82.09
75536;BME280;64119;52.070;20.804;2023-02-11T02:07:51;101545.27;;;2.20;81.92
75536;BME280;64119;52.070;20.804;2023-02-11T02:10:24;101538.30;;;2.20;81.72
75536;BME280;64119;52.070;20.804;2023-02-11T02:12:54;101524.38;;;2.17;81.99
75536;BME280;64119;52.070;20.804;2023-02-11T02:15:29;101515.88;;;2.16;82.14
75536;BME280;64119;52.070;20.804;2023-02-11T02:26:00;101483.84;;;2.13;82.25
75536;BME280;64119;52.070;20.804;2023-02-11T02:31:53;101461.27;;;2.14;81.87
75536;BME280;64119;52.070;20.804;2023-02-11T02:34:50;101465.52;;;2.10;81.89
75536;BME280;64119;52.070;20.804;2023-02-11T02:37:25;101459.33;;;2.09;82.10
75536;BME280;64119;52.070;20.804;2023-02-11T02:39:58;101452.72;;;2.06;81.87
75536;BME280;64119;52.070;20.804;2023-02-11T02:42:28;101456.90;;;2.07;82.01
75536;BME280;64119;52.070;20.804;2023-02-11T02:44:57;101461.98;;;2.06;82.11
75536;BME280;64119;52.070;20.804;2023-02-11T02:47:25;101458.52;;;2.06;82.09
75536;BME280;64119;52.070;20.804;2023-02-11T02:49:53;101462.88;;;2.06;82.14
75536;BME280;64119;52.070;20.804;2023-02-11T02:52:48;101455.91;;;2.05;81.94
75536;BME280;64119;52.070;20.804;2023-02-11T03:06:21;101438.77;;;2.04;81.89
75536;BME280;64119;52.070;20.804;2023-02-11T03:09:15;101446.81;;;2.06;81.54
75536;BME280;64119;52.070;20.804;2023-02-11T03:11:45;101442.44;;;2.09;81.69
75536;BME280;64119;52.070;20.804;2023-02-11T03:14:16;101434.73;;;2.09;81.34
75536;BME280;64119;52.070;20.804;2023-02-11T03:16:45;101435.45;;;2.09;81.12
75536;BME280;64119;52.070;20.804;2023-02-11T03:19:19;101420.85;;;2.11;81.06
75536;BME280;64119;52.070;20.804;2023-02-11T03:21:50;101429.36;;;2.11;81.42
75536;BME280;64119;52.070;20.804;2023-02-11T03:24:24;101421.27;;;2.12;81.38
75536;BME280;64119;52.070;20.804;2023-02-11T03:27:03;101413.70;;;2.10;80.87
75536;BME280;64119;52.070;20.804;2023-02-11T03:29:43;101407.27;;;2.10;80.87
75536;BME280;64119;52.070;20.804;2023-02-11T03:32:24;101396.97;;;2.10;80.93
75536;BME280;64119;52.070;20.804;2023-02-11T03:35:12;101392.25;;;2.10;80.70
75536;BME280;64119;52.070;20.804;2023-02-11T03:37:54;101391.59;;;2.12;80.64
75536;BME280;64119;52.070;20.804;2023-02-11T03:40:26;101389.98;;;2.10;80.44
75536;BME280;64119;52.070;20.804;2023-02-11T03:43:02;101386.81;;;2.08;80.61
75536;BME280;64119;52.070;20.804;2023-02-11T03:45:35;101373.40;;;2.11;80.11
75536;BME280;64119;52.070;20.804;2023-02-11T03:48:29;101362.94;;;2.10;80.37
75536;BME280;64119;52.070;20.804;2023-02-11T03:51:01;101364.48;;;2.08;80.08
75536;BME280;64119;52.070;20.804;2023-02-11T03:53:32;101363.73;;;2.09;80.04
75536;BME280;64119;52.070;20.804;2023-02-11T03:56:04;101353.20;;;2.10;79.93
75536;BME280;64119;52.070;20.804;2023-02-11T03:58:34;101355.15;;;2.10;79.83
75536;BME280;64119;52.070;20.804;2023-02-11T04:01:02;101347.10;;;2.12;79.78
75536;BME280;64119;52.070;20.804;2023-02-11T04:03:31;101352.36;;;2.09;79.77
75536;BME280;64119;52.070;20.804;2023-02-11T04:05:59;101351.88;;;2.07;79.57
75536;BME280;64119;52.070;20.804;2023-02-11T04:08:27;101346.50;;;2.08;80.13
75536;BME280;64119;52.070;20.804;2023-02-11T04:10:55;101332.08;;;2.08;80.05
75536;BME280;64119;52.070;20.804;2023-02-11T04:13:24;101322.31;;;2.07;79.78
75536;BME280;64119;52.070;20.804;2023-02-11T04:15:52;101312.64;;;2.11;79.36
75536;BME280;64119;52.070;20.804;2023-02-11T04:18:21;101312.05;;;2.12;79.04
75536;BME280;64119;52.070;20.804;2023-02-11T04:20:50;101302.66;;;2.12;79.03
75536;BME280;64119;52.070;20.804;2023-02-11T04:23:18;101294.29;;;2.09;78.96
75536;BME280;64119;52.070;20.804;2023-02-11T04:25:45;101288.28;;;2.08;79.16
75536;BME280;64119;52.070;20.804;2023-02-11T04:28:13;101284.91;;;2.06;79.45
75536;BME280;64119;52.070;20.804;2023-02-11T04:30:41;101285.73;;;2.04;79.39
75536;BME280;64119;52.070;20.804;2023-02-11T04:33:09;101278.35;;;2.03;79.33
75536;BME280;64119;52.070;20.804;2023-02-11T04:35:37;101277.19;;;2.07;79.40
75536;BME280;64119;52.070;20.804;2023-02-11T04:38:05;101271.05;;;2.02;79.19
75536;BME280;64119;52.070;20.804;2023-02-11T04:40:33;101269.55;;;2.01;78.95
75536;BME280;64119;52.070;20.804;2023-02-11T04:43:00;101269.38;;;1.99;79.18
75536;BME280;64119;52.070;20.804;2023-02-11T04:45:28;101272.91;;;1.96;79.33
75536;BME280;64119;52.070;20.804;2023-02-11T04:47:56;101260.27;;;1.97;79.31
75536;BME280;64119;52.070;20.804;2023-02-11T04:50:24;101252.61;;;1.92;79.01
75536;BME280;64119;52.070;20.804;2023-02-11T04:52:52;101250.27;;;1.90;79.09
75536;BME280;64119;52.070;20.804;2023-02-11T04:55:20;101245.86;;;1.89;78.98
75536;BME280;64119;52.070;20.804;2023-02-11T04:57:48;101236.77;;;1.92;78.96
75536;BME280;64119;52.070;20.804;2023-02-11T05:00:16;101231.16;;;1.90;78.81
75536;BME280;64119;52.070;20.804;2023-02-11T05:02:43;101224.63;;;1.91;78.98
75536;BME280;64119;52.070;20.804;2023-02-11T05:05:11;101218.73;;;1.90;79.24
75536;BME280;64119;52.070;20.804;2023-02-11T05:07:39;101212.45;;;1.93;78.81
75536;BME280;64119;52.070;20.804;2023-02-11T05:10:07;101209.91;;;1.92;78.64
75536;BME280;64119;52.070;20.804;2023-02-11T05:12:35;101203.20;;;1.91;78.54
75536;BME280;64119;52.070;20.804;2023-02-11T05:15:04;101202.47;;;1.88;78.56
75536;BME280;64119;52.070;20.804;2023-02-11T05:17:31;101197.99;;;1.90;78.82
75536;BME280;64119;52.070;20.804;2023-02-11T05:20:00;101194.03;;;1.89;78.64
75536;BME280;64119;52.070;20.804;2023-02-11T05:22:27;101192.73;;;1.91;78.48
75536;BME280;64119;52.070;20.804;2023-02-11T05:24:55;101189.44;;;1.92;78.47
75536;BME280;64119;52.070;20.804;2023-02-11T05:27:23;101190.45;;;1.91;78.68
75536;BME280;64119;52.070;20.804;2023-02-11T05:29:51;101192.24;;;1.90;78.98
75536;BME280;64119;52.070;20.804;2023-02-11T05:32:19;101185.34;;;1.89;78.85
75536;BME280;64119;52.070;20.804;2023-02-11T05:34:46;101178.60;;;1.91;78.84
75536;BME280;64119;52.070;20.804;2023-02-11T05:37:15;101178.05;;;1.91;78.60
75536;BME280;64119;52.070;20.804;2023-02-11T05:39:42;101173.64;;;1.92;78.51
75536;BME280;64119;52.070;20.804;2023-02-11T05:42:10;101177.68;;;1.94;78.08
75536;BME280;64119;52.070;20.804;2023-02-11T05:44:38;101190.13;;;1.90;78.47
75536;BME280;64119;52.070;20.804;2023-02-11T05:47:06;101181.30;;;1.89;78.55
75536;BME280;64119;52.070;20.804;2023-02-11T05:49:35;101178.64;;;1.92;78.23
75536;BME280;64119;52.070;20.804;2023-02-11T05:52:03;101176.77;;;1.94;78.48
75536;BME280;64119;52.070;20.804;2023-02-11T05:54:31;101175.39;;;1.94;78.46
75536;BME280;64119;52.070;20.804;2023-02-11T05:56:58;101173.91;;;1.97;77.95
75536;BME280;64119;52.070;20.804;2023-02-11T05:59:26;101160.45;;;2.00;78.03
75536;BME280;64119;52.070;20.804;2023-02-11T06:01:54;101161.42;;;2.01;77.80
75536;BME280;64119;52.070;20.804;2023-02-11T06:04:22;101161.20;;;2.04;77.65
75536;BME280;64119;52.070;20.804;2023-02-11T06:06:50;101156.71;;;2.03;77.53
75536;BME280;64119;52.070;20.804;2023-02-11T06:09:17;101153.48;;;2.05;78.12
75536;BME280;64119;52.070;20.804;2023-02-11T06:11:45;101149.25;;;2.07;77.55
75536;BME280;64119;52.070;20.804;2023-02-11T06:14:13;101154.21;;;2.09;77.63
75536;BME280;64119;52.070;20.804;2023-02-11T06:16:41;101152.40;;;2.10;77.86
75536;BME280;64119;52.070;20.804;2023-02-11T06:19:09;101155.27;;;2.11;77.62
75536;BME280;64119;52.070;20.804;2023-02-11T06:21:37;101146.92;;;2.13;77.42
75536;BME280;64119;52.070;20.804;2023-02-11T06:24:11;101148.06;;;2.14;77.58
75536;BME280;64119;52.070;20.804;2023-02-11T06:26:39;101145.44;;;2.12;77.60
75536;BME280;64119;52.070;20.804;2023-02-11T06:29:07;101138.10;;;2.14;77.51
75536;BME280;64119;52.070;20.804;2023-02-11T06:31:36;101134.60;;;2.14;77.17
75536;BME280;64119;52.070;20.804;2023-02-11T06:34:04;101125.36;;;2.14;77.20
75536;BME280;64119;52.070;20.804;2023-02-11T06:36:32;101125.08;;;2.13;77.18
75536;BME280;64119;52.070;20.804;2023-02-11T06:39:01;101121.02;;;2.14;77.22
75536;BME280;64119;52.070;20.804;2023-02-11T06:41:28;101119.08;;;2.14;77.51
75536;BME280;64119;52.070;20.804;2023-02-11T06:43:56;101116.17;;;2.11;77.52
75536;BME280;64119;52.070;20.804;2023-02-11T06:46:24;101119.80;;;2.11;77.53
75536;BME280;64119;52.070;20.804;2023-02-11T06:48:52;101113.59;;;2.13;77.53
75536;BME280;64119;52.070;20.804;2023-02-11T06:51:20;101101.95;;;2.15;77.47
75536;BME280;64119;52.070;20.804;2023-02-11T06:53:48;101101.71;;;2.16;77.66
75536;BME280;64119;52.070;20.804;2023-02-11T06:56:18;101108.16;;;2.18;77.56
75536;BME280;64119;52.070;20.804;2023-02-11T06:58:46;101109.99;;;2.19;77.23
75536;BME280;64119;52.070;20.804;2023-02-11T07:01:15;101106.83;;;2.19;77.39
75536;BME280;64119;52.070;20.804;2023-02-11T07:03:44;101093.55;;;2.20;77.05
75536;BME280;64119;52.070;20.804;2023-02-11T07:06:18;101094.65;;;2.23;77.33
75536;BME280;64119;52.070;20.804;2023-02-11T07:08:47;101088.42;;;2.25;77.06
75536;BME280;64119;52.070;20.804;2023-02-11T07:11:17;101085.05;;;2.25;77.30
75536;BME280;64119;52.070;20.804;2023-02-11T07:13:46;101072.36;;;2.27;77.24
75536;BME280;64119;52.070;20.804;2023-02-11T07:16:15;101073.13;;;2.24;77.22
75536;BME280;64119;52.070;20.804;2023-02-11T07:18:45;101079.61;;;2.24;77.16
75536;BME280;64119;52.070;20.804;2023-02-11T07:21:15;101070.95;;;2.23;77.40
75536;BME280;64119;52.070;20.804;2023-02-11T07:23:43;101064.64;;;2.25;77.40
75536;BME280;64119;52.070;20.804;2023-02-11T07:26:16;101062.27;;;2.29;77.64
75536;BME280;64119;52.070;20.804;2023-02-11T07:28:44;101072.34;;;2.27;77.51
75536;BME280;64119;52.070;20.804;2023-02-11T07:31:21;101080.32;;;2.26;77.37
75536;BME280;64119;52.070;20.804;2023-02-11T07:33:51;101091.05;;;2.25;77.86
75536;BME280;64119;52.070;20.804;2023-02-11T07:36:20;101094.23;;;2.24;78.03
75536;BME280;64119;52.070;20.804;2023-02-11T07:38:48;101090.83;;;2.23;77.85
75536;BME280;64119;52.070;20.804;2023-02-11T07:41:19;101095.02;;;2.23;78.32
75536;BME280;64119;52.070;20.804;2023-02-11T07:43:48;101088.77;;;2.23;78.00
75536;BME280;64119;52.070;20.804;2023-02-11T07:46:24;101085.00;;;2.24;78.39
75536;BME280;64119;52.070;20.804;2023-02-11T07:48:53;101080.09;;;2.20;78.24
75536;BME280;64119;52.070;20.804;2023-02-11T07:51:23;101077.45;;;2.20;77.90
75536;BME280;64119;52.070;20.804;2023-02-11T07:53:52;101070.15;;;2.20;78.40
75536;BME280;64119;52.070;20.804;2023-02-11T07:56:21;101070.60;;;2.18;78.48
75536;BME280;64119;52.070;20.804;2023-02-11T07:58:49;101071.93;;;2.19;78.84
75536;BME280;64119;52.070;20.804;2023-02-11T08:01:19;101068.70;;;2.16;79.31
75536;BME280;64119;52.070;20.804;2023-02-11T08:03:49;101072.63;;;2.12;79.77
75536;BME280;64119;52.070;20.804;2023-02-11T08:06:18;101078.27;;;2.10;79.99
75536;BME280;64119;52.070;20.804;2023-02-11T08:08:47;101077.60;;;2.09;80.23
75536;BME280;64119;52.070;20.804;2023-02-11T08:11:18;101079.64;;;2.07;80.83
75536;BME280;64119;52.070;20.804;2023-02-11T08:13:47;101077.93;;;2.05;81.50
75536;BME280;64119;52.070;20.804;2023-02-11T08:16:21;101065.61;;;2.02;81.45
75536;BME280;64119;52.070;20.804;2023-02-11T08:18:50;101062.73;;;2.03;82.36
75536;BME280;64119;52.070;20.804;2023-02-11T08:21:19;101059.35;;;1.97;83.09
75536;BME280;64119;52.070;20.804;2023-02-11T08:23:47;101056.48;;;1.91;84.02
75536;BME280;64119;52.070;20.804;2023-02-11T08:26:19;101057.83;;;1.82;84.26
75536;BME280;64119;52.070;20.804;2023-02-11T08:28:49;101059.59;;;1.80;84.46
75536;BME280;64119;52.070;20.804;2023-02-11T08:31:20;101054.02;;;1.77;84.48
75536;BME280;64119;52.070;20.804;2023-02-11T08:33:48;101054.67;;;1.76;84.24
75536;BME280;64119;52.070;20.804;2023-02-11T08:36:28;101053.04;;;1.75;84.57
75536;BME280;64119;52.070;20.804;2023-02-11T08:38:58;101051.11;;;1.72;85.32
75536;BME280;64119;52.070;20.804;2023-02-11T08:41:45;101052.88;;;1.70;85.53
75536;BME280;64119;52.070;20.804;2023-02-11T08:44:13;101055.41;;;1.71;85.29
75536;BME280;64119;52.070;20.804;2023-02-11T08:46:41;101047.81;;;1.70;85.36
75536;BME280;64119;52.070;20.804;2023-02-11T08:49:08;101045.56;;;1.70;86.04
75536;BME280;64119;52.070;20.804;2023-02-11T08:51:36;101042.83;;;1.71;86.44
75536;BME280;64119;52.070;20.804;2023-02-11T08:54:04;101032.93;;;1.71;86.64
75536;BME280;64119;52.070;20.804;2023-02-11T08:56:36;101019.27;;;1.72;86.86
75536;BME280;64119;52.070;20.804;2023-02-11T08:59:06;101016.52;;;1.73;87.17
75536;BME280;64119;52.070;20.804;2023-02-11T09:01:35;101005.46;;;1.76;87.49
75536;BME280;64119;52.070;20.804;2023-02-11T09:04:03;100994.31;;;1.81;87.90
75536;BME280;64119;52.070;20.804;2023-02-11T09:06:31;100990.70;;;1.82;87.99
75536;BME280;64119;52.070;20.804;2023-02-11T09:08:59;100989.59;;;1.88;87.95
75536;BME280;64119;52.070;20.804;2023-02-11T09:11:31;100986.94;;;1.91;88.28
75536;BME280;64119;52.070;20.804;2023-02-11T09:14:00;100976.73;;;1.94;88.14
75536;BME280;64119;52.070;20.804;2023-02-11T09:16:31;100965.16;;;1.94;88.45
75536;BME280;64119;52.070;20.804;2023-02-11T09:19:00;100957.09;;;1.95;88.43
75536;BME280;64119;52.070;20.804;2023-02-11T09:21:29;100951.03;;;1.97;88.66
75536;BME280;64119;52.070;20.804;2023-02-11T09:23:57;100941.93;;;2.01;88.72
75536;BME280;64119;52.070;20.804;2023-02-11T09:26:27;100927.28;;;2.04;88.72
75536;BME280;64119;52.070;20.804;2023-02-11T09:28:58;100930.44;;;2.08;88.76
75536;BME280;64119;52.070;20.804;2023-02-11T09:31:28;100941.02;;;2.15;88.54
75536;BME280;64119;52.070;20.804;2023-02-11T09:33:59;100941.38;;;2.15;88.58
75536;BME280;64119;52.070;20.804;2023-02-11T09:36:32;100947.20;;;2.21;88.67
75536;BME280;64119;52.070;20.804;2023-02-11T09:39:01;100955.31;;;2.22;88.43
75536;BME280;64119;52.070;20.804;2023-02-11T09:41:53;100954.64;;;2.22;88.40
75536;BME280;64119;52.070;20.804;2023-02-11T09:44:27;100952.10;;;2.27;88.34
75536;BME280;64119;52.070;20.804;2023-02-11T09:47:01;100960.52;;;2.27;88.30
75536;BME280;64119;52.070;20.804;2023-02-11T09:49:43;100973.11;;;2.26;88.29
75536;BME280;64119;52.070;20.804;2023-02-11T09:54:57;100974.86;;;2.28;88.31
75536;BME280;64119;52.070;20.804;2023-02-11T09:57:31;100981.69;;;2.30;88.29
75536;BME280;64119;52.070;20.804;2023-02-11T10:00:01;100990.16;;;2.32;88.31
75536;BME280;64119;52.070;20.804;2023-02-11T10:02:56;100984.00;;;2.34;88.06
75536;BME280;64119;52.070;20.804;2023-02-11T10:06:07;100972.70;;;2.34;88.23
75536;BME280;64119;52.070;20.804;2023-02-11T10:11:42;100946.11;;;2.39;88.30
75536;BME280;64119;52.070;20.804;2023-02-11T10:22:46;100942.02;;;2.38;88.68
75536;BME280;64119;52.070;20.804;2023-02-11T10:25:32;100950.48;;;2.39;88.84
75536;BME280;64119;52.070;20.804;2023-02-11T10:28:12;100947.95;;;2.36;88.77
75536;BME280;64119;52.070;20.804;2023-02-11T10:33:33;100944.98;;;2.35;88.97
75536;BME280;64119;52.070;20.804;2023-02-11T10:36:05;100938.33;;;2.34;89.20
75536;BME280;64119;52.070;20.804;2023-02-11T10:38:33;100929.95;;;2.34;89.45
75536;BME280;64119;52.070;20.804;2023-02-11T10:41:03;100917.78;;;2.33;89.29
75536;BME280;64119;52.070;20.804;2023-02-11T10:43:32;100907.78;;;2.32;90.10
75536;BME280;64119;52.070;20.804;2023-02-11T10:46:03;100903.27;;;2.31;90.00
75536;BME280;64119;52.070;20.804;2023-02-11T10:48:49;100906.30;;;2.30;89.92
75536;BME280;64119;52.070;20.804;2023-02-11T10:51:25;100886.48;;;2.29;90.42
75536;BME280;64119;52.070;20.804;2023-02-11T10:56:57;100880.77;;;2.31;90.88
75536;BME280;64119;52.070;20.804;2023-02-11T10:59:36;100868.72;;;2.33;90.83
75536;BME280;64119;52.070;20.804;2023-02-11T11:02:26;100867.00;;;2.35;90.48
75536;BME280;64119;52.070;20.804;2023-02-11T11:05:03;100852.44;;;2.36;90.81
75536;BME280;64119;52.070;20.804;2023-02-11T11:07:33;100848.60;;;2.36;91.02
75536;BME280;64119;52.070;20.804;2023-02-11T11:10:27;100857.17;;;2.38;91.03
75536;BME280;64119;52.070;20.804;2023-02-11T11:12:55;100856.29;;;2.38;90.76
75536;BME280;64119;52.070;20.804;2023-02-11T11:15:25;100858.61;;;2.39;91.05
75536;BME280;64119;52.070;20.804;2023-02-11T11:18:13;100842.54;;;2.42;90.99
75536;BME280;64119;52.070;20.804;2023-02-11T11:20:59;100840.10;;;2.40;91.01
75536;BME280;64119;52.070;20.804;2023-02-11T11:23:29;100839.39;;;2.42;91.29
75536;BME280;64119;52.070;20.804;2023-02-11T11:28:36;100871.94;;;2.45;91.41
75536;BME280;64119;52.070;20.804;2023-02-11T11:31:19;100864.43;;;2.45;91.41
75536;BME280;64119;52.070;20.804;2023-02-11T11:33:50;100872.84;;;2.47;91.14
75536;BME280;64119;52.070;20.804;2023-02-11T11:36:21;100871.26;;;2.47;91.30
75536;BME280;64119;52.070;20.804;2023-02-11T11:38:56;100870.38;;;2.49;91.43
75536;BME280;64119;52.070;20.804;2023-02-11T11:41:28;100881.05;;;2.51;91.55
75536;BME280;64119;52.070;20.804;2023-02-11T11:46:45;100885.72;;;2.56;91.67
75536;BME280;64119;52.070;20.804;2023-02-11T11:49:34;100882.38;;;2.58;91.74
75536;BME280;64119;52.070;20.804;2023-02-11T11:54:47;100872.56;;;2.63;91.85
75536;BME280;64119;52.070;20.804;2023-02-11T11:57:22;100873.94;;;2.67;91.54
75536;BME280;64119;52.070;20.804;2023-02-11T11:59:52;100866.30;;;2.69;91.87
75536;BME280;64119;52.070;20.804;2023-02-11T12:02:49;100872.06;;;2.69;92.16
75536;BME280;64119;52.070;20.804;2023-02-11T12:05:31;100862.89;;;2.71;91.94
75536;BME280;64119;52.070;20.804;2023-02-11T12:19:48;100843.16;;;2.83;92.15
75536;BME280;64119;52.070;20.804;2023-02-11T12:36:04;100832.52;;;3.03;92.14
75536;BME280;64119;52.070;20.804;2023-02-11T12:47:42;100840.77;;;3.11;92.65
75536;BME280;64119;52.070;20.804;2023-02-11T12:55:48;100832.13;;;3.16;92.59
75536;BME280;64119;52.070;20.804;2023-02-11T12:58:20;100836.95;;;3.19;92.42
75536;BME280;64119;52.070;20.804;2023-02-11T13:01:14;100835.90;;;3.21;92.37
75536;BME280;64119;52.070;20.804;2023-02-11T13:04:23;100830.07;;;3.22;92.58
75536;BME280;64119;52.070;20.804;2023-02-11T13:06:48;100823.85;;;3.25;92.61
75536;BME280;64119;52.070;20.804;2023-02-11T13:09:22;100802.31;;;3.29;92.27
75536;BME280;64119;52.070;20.804;2023-02-11T13:11:57;100807.67;;;3.36;92.30
75536;BME280;64119;52.070;20.804;2023-02-11T13:14:51;100817.98;;;3.40;92.27
75536;BME280;64119;52.070;20.804;2023-02-11T13:17:26;100819.21;;;3.44;92.62
75536;BME280;64119;52.070;20.804;2023-02-11T13:20:00;100820.32;;;3.46;92.42
75536;BME280;64119;52.070;20.804;2023-02-11T13:22:40;100825.42;;;3.47;92.49
75536;BME280;64119;52.070;20.804;2023-02-11T13:25:32;100823.88;;;3.51;92.50
75536;BME280;64119;52.070;20.804;2023-02-11T13:28:16;100820.17;;;3.55;92.34
75536;BME280;64119;52.070;20.804;2023-02-11T13:30:46;100821.92;;;3.59;92.24
75536;BME280;64119;52.070;20.804;2023-02-11T13:33:29;100823.28;;;3.61;92.39
75536;BME280;64119;52.070;20.804;2023-02-11T13:38:31;100824.38;;;3.67;92.20
75536;BME280;64119;52.070;20.804;2023-02-11T13:41:18;100818.74;;;3.70;92.10
75536;BME280;64119;52.070;20.804;2023-02-11T13:44:24;100818.41;;;3.71;92.05
75536;BME280;64119;52.070;20.804;2023-02-11T13:47:01;100824.21;;;3.73;92.06
75536;BME280;64119;52.070;20.804;2023-02-11T13:49:40;100816.98;;;3.76;92.23
75536;BME280;64119;52.070;20.804;2023-02-11T13:52:19;100813.02;;;3.79;92.04
75536;BME280;64119;52.070;20.804;2023-02-11T13:54:49;100800.61;;;3.80;92.14
75536;BME280;64119;52.070;20.804;2023-02-11T14:14:21;100796.02;;;4.04;92.03
75536;BME280;64119;52.070;20.804;2023-02-11T14:30:41;100802.10;;;4.21;91.89
75536;BME280;64119;52.070;20.804;2023-02-11T14:33:05;100801.63;;;4.22;91.89
75536;BME280;64119;52.070;20.804;2023-02-11T14:35:58;100804.45;;;4.24;91.92
75536;BME280;64119;52.070;20.804;2023-02-11T14:41:37;100819.74;;;4.25;91.90
75536;BME280;64119;52.070;20.804;2023-02-11T14:44:13;100821.40;;;4.26;91.72
75536;BME280;64119;52.070;20.804;2023-02-11T14:46:46;100821.48;;;4.25;91.88
75536;BME280;64119;52.070;20.804;2023-02-11T14:49:34;100816.09;;;4.25;91.91
75536;BME280;64119;52.070;20.804;2023-02-11T14:52:17;100822.27;;;4.25;91.99
75536;BME280;64119;52.070;20.804;2023-02-11T14:54:49;100824.14;;;4.25;92.07
75536;BME280;64119;52.070;20.804;2023-02-11T14:57:18;100820.77;;;4.25;91.96
75536;BME280;64119;52.070;20.804;2023-02-11T15:00:13;100828.78;;;4.26;91.88
75536;BME280;64119;52.070;20.804;2023-02-11T15:02:42;100824.11;;;4.25;91.89
75536;BME280;64119;52.070;20.804;2023-02-11T15:05:27;100831.91;;;4.24;92.18
75536;BME280;64119;52.070;20.804;2023-02-11T15:07:57;100833.86;;;4.24;92.00
75536;BME280;64119;52.070;20.804;2023-02-11T15:10:40;100834.33;;;4.23;92.39
75536;BME280;64119;52.070;20.804;2023-02-11T15:13:07;100842.51;;;4.21;92.57
75536;BME280;64119;52.070;20.804;2023-02-11T15:15:39;100842.23;;;4.22;92.40
75536;BME280;64119;52.070;20.804;2023-02-11T15:18:06;100846.36;;;4.21;92.29
75536;BME280;64119;52.070;20.804;2023-02-11T15:20:34;100848.18;;;4.22;92.24
75536;BME280;64119;52.070;20.804;2023-02-11T15:23:06;100847.80;;;4.25;92.68
75536;BME280;64119;52.070;20.804;2023-02-11T15:25:33;100859.05;;;4.24;92.57
75536;BME280;64119;52.070;20.804;2023-02-11T15:28:18;100860.84;;;4.23;92.76
75536;BME280;64119;52.070;20.804;2023-02-11T15:30:46;100868.58;;;4.27;92.79